createdAt,value
2023-02-01T00:13:42.867Z,82.40
2023-02-01T00:15:44.698Z,68.68
2023-02-01T00:17:46.561Z,65.22
2023-02-01T00:19:49.472Z,61.63
2023-02-01T00:21:51.311Z,60.03
2023-02-01T00:23:53.229Z,58.50
2023-02-01T00:25:55.106Z,58.05
2023-02-01T00:27:59.781Z,57.17
2023-02-01T00:30:01.888Z,61.63
2023-02-01T00:32:03.973Z,55.28
2023-02-01T00:36:09.220Z,53.58
2023-02-01T00:38:11.275Z,54.58
2023-02-01T00:42:14.980Z,52.90
2023-02-01T00:44:16.900Z,52.13
2023-02-01T00:48:24.012Z,53.65
2023-02-01T00:50:25.890Z,56.13
2023-02-01T00:52:27.766Z,60.47
2023-02-01T00:54:29.688Z,61.17
2023-02-01T00:56:31.754Z,70.97
2023-02-01T00:58:34.482Z,73.65
2023-02-01T01:00:36.467Z,70.07
2023-02-01T01:04:40.116Z,63.92
2023-02-01T01:06:41.955Z,59.50
2023-02-01T01:08:44.615Z,58.33
2023-02-01T01:10:46.475Z,55.92
2023-02-01T01:12:48.305Z,54.65
2023-02-01T01:14:50.356Z,62.00
2023-02-01T01:18:54.449Z,56.28
2023-02-01T01:20:56.523Z,57.30
2023-02-01T01:22:58.348Z,56.22
2023-02-01T01:25:01.418Z,54.88
2023-02-01T01:27:04.027Z,60.28
2023-02-01T01:29:05.948Z,61.35
2023-02-01T01:31:12.364Z,64.00
2023-02-01T01:33:14.964Z,60.13
2023-02-01T01:35:16.873Z,61.55
2023-02-01T01:37:18.789Z,61.85
2023-02-01T01:39:20.667Z,60.63
2023-02-01T01:41:25.691Z,62.42
2023-02-01T01:43:48.893Z,74.10
2023-02-01T01:45:51.804Z,66.75
2023-02-01T01:48:21.159Z,58.80
2023-02-01T01:50:49.268Z,52.58
2023-02-01T01:52:52.928Z,52.03
2023-02-01T01:54:55.100Z,62.55
2023-02-01T01:57:01.475Z,88.47
2023-02-01T01:59:04.663Z,81.93
2023-02-01T02:01:06.608Z,148.60
2023-02-01T04:14:17.403Z,64.13
2023-02-01T04:16:19.300Z,55.15
2023-02-01T04:18:21.141Z,54.53
2023-02-01T04:20:23.379Z,53.15
2023-02-01T04:22:25.519Z,51.72
2023-02-01T04:24:27.354Z,43.90
2023-02-01T04:26:29.276Z,48.28
2023-02-01T04:28:31.644Z,43.70
2023-02-01T04:30:34.008Z,45.75
2023-02-01T04:32:36.355Z,43.92
2023-02-01T04:34:38.235Z,49.33
2023-02-01T04:36:40.147Z,42.10
2023-02-01T04:38:42.046Z,39.38
2023-02-01T04:40:43.895Z,45.38
2023-02-01T04:42:45.729Z,48.30
2023-02-01T04:44:47.667Z,52.20
2023-02-01T04:48:51.269Z,53.83
2023-02-01T04:50:53.199Z,64.32
2023-02-01T04:52:55.043Z,65.60
2023-02-01T04:54:59.426Z,60.67
2023-02-01T04:57:01.461Z,68.30
2023-02-01T05:01:07.263Z,77.88
2023-02-01T05:03:09.254Z,69.25
2023-02-01T05:05:11.134Z,74.93
2023-02-01T05:07:13.028Z,67.65
2023-02-01T05:09:14.923Z,74.00
2023-02-01T05:11:35.172Z,82.00
2023-02-01T05:13:49.205Z,75.60
2023-02-01T05:15:52.307Z,60.53
2023-02-01T05:17:54.164Z,61.95
2023-02-01T05:19:56.116Z,59.30
2023-02-01T05:21:58.428Z,58.38
2023-02-01T05:24:14.645Z,57.03
2023-02-01T05:26:16.509Z,59.60
2023-02-01T05:28:18.436Z,60.70
2023-02-01T05:30:20.691Z,49.63
2023-02-01T05:32:23.372Z,57.13
2023-02-01T05:34:25.438Z,49.75
2023-02-01T05:38:30.708Z,42.78
2023-02-01T05:40:32.620Z,54.25
2023-02-01T05:42:34.448Z,51.22
2023-02-01T05:44:36.272Z,51.10
2023-02-01T05:46:38.249Z,44.53
2023-02-01T05:50:42.546Z,47.33
2023-02-01T05:54:49.164Z,41.42
2023-02-01T05:56:51.026Z,39.95
2023-02-01T05:58:53.320Z,44.08
2023-02-01T08:15:37.438Z,39.40
2023-02-01T08:17:39.377Z,41.15
2023-02-01T08:19:41.212Z,35.70
2023-02-01T08:21:43.110Z,32.88
2023-02-01T08:23:45.505Z,33.72
2023-02-01T08:25:49.147Z,31.17
2023-02-01T08:27:51.812Z,29.02
2023-02-01T08:29:55.056Z,24.25
2023-02-01T08:31:57.454Z,26.40
2023-02-01T08:34:01.521Z,30.13
2023-02-01T08:36:07.938Z,29.33
2023-02-01T08:38:10.004Z,30.02
2023-02-01T08:42:32.512Z,26.02
2023-02-01T08:44:36.054Z,24.42
2023-02-01T08:46:37.945Z,32.35
2023-02-01T08:48:40.292Z,29.85
2023-02-01T08:50:42.187Z,26.63
2023-02-01T08:52:44.458Z,24.42
2023-02-01T08:54:46.364Z,23.92
2023-02-01T08:56:48.280Z,22.05
2023-02-01T08:58:50.232Z,18.02
2023-02-01T09:00:52.132Z,17.38
2023-02-01T09:02:54.012Z,15.57
2023-02-01T09:04:57.187Z,16.58
2023-02-01T09:06:59.094Z,16.65
2023-02-01T09:09:00.969Z,14.50
2023-02-01T09:11:05.819Z,14.73
2023-02-01T09:13:08.715Z,15.50
2023-02-01T09:15:10.831Z,14.25
2023-02-01T09:17:14.546Z,12.88
2023-02-01T09:19:26.058Z,12.88
2023-02-01T09:21:28.622Z,11.82
2023-02-01T09:25:32.235Z,13.27
2023-02-01T09:27:34.298Z,12.60
2023-02-01T09:31:41.902Z,10.80
2023-02-01T09:33:45.882Z,11.88
2023-02-01T09:35:47.762Z,11.05
2023-02-01T09:37:49.605Z,12.88
2023-02-01T09:39:51.454Z,12.05
2023-02-01T09:42:09.105Z,11.00
2023-02-01T09:44:44.079Z,12.52
2023-02-01T09:46:46.617Z,12.00
2023-02-01T09:48:53.798Z,11.98
2023-02-01T09:50:58.812Z,12.13
2023-02-01T09:53:05.430Z,11.18
2023-02-01T09:55:31.415Z,10.75
2023-02-01T09:57:44.321Z,11.50
2023-02-01T09:59:52.008Z,11.25
2023-02-01T10:01:54.386Z,12.13
2023-02-01T10:04:03.836Z,12.15
2023-02-01T10:06:32.069Z,10.80
2023-02-01T10:09:06.333Z,10.43
2023-02-01T10:11:50.919Z,10.52
2023-02-01T10:14:11.138Z,10.13
2023-02-01T10:16:21.277Z,10.82
2023-02-01T10:18:23.067Z,10.23
2023-02-01T10:20:54.614Z,9.95
2023-02-01T10:23:32.624Z,9.93
2023-02-01T10:26:06.052Z,8.05
2023-02-01T10:28:14.425Z,8.77
2023-02-01T10:30:43.029Z,7.68
2023-02-01T10:32:45.093Z,9.18
2023-02-01T10:37:02.841Z,7.10
2023-02-01T10:39:08.843Z,8.90
2023-02-01T10:41:20.471Z,9.85
2023-02-01T10:43:22.829Z,9.35
2023-02-01T10:45:29.272Z,10.35
2023-02-01T10:47:31.178Z,8.75
2023-02-01T10:49:48.354Z,9.05
2023-02-01T10:52:16.397Z,9.10
2023-02-01T10:54:21.610Z,9.02
2023-02-01T10:56:25.869Z,7.28
2023-02-01T10:58:32.472Z,7.13
2023-02-01T11:00:49.764Z,8.20
2023-02-01T11:02:52.387Z,6.90
2023-02-01T11:05:01.663Z,7.57
2023-02-01T11:07:14.205Z,6.97
2023-02-01T11:09:25.598Z,5.78
2023-02-01T11:11:28.932Z,5.60
2023-02-01T11:13:36.859Z,6.00
2023-02-01T11:15:38.729Z,8.68
2023-02-01T11:17:48.718Z,8.68
2023-02-01T11:19:59.994Z,8.25
2023-02-01T11:22:02.072Z,9.65
2023-02-01T11:26:28.794Z,6.72
2023-02-01T11:28:34.065Z,7.65
2023-02-01T11:30:41.282Z,7.13
2023-02-01T11:32:43.350Z,7.95
2023-02-01T11:34:53.118Z,8.40
2023-02-01T11:36:59.299Z,7.25
2023-02-01T11:39:10.388Z,7.22
2023-02-01T11:41:21.805Z,8.57
2023-02-01T11:43:28.810Z,8.27
2023-02-01T11:45:35.972Z,7.82
2023-02-01T11:47:42.561Z,7.22
2023-02-01T11:49:44.444Z,9.32
2023-02-01T11:51:55.840Z,8.52
2023-02-01T11:54:40.201Z,10.67
2023-02-01T11:57:05.882Z,5.50
2023-02-01T11:59:19.584Z,5.47
2023-02-01T12:01:45.561Z,6.82
2023-02-01T12:04:13.297Z,7.63
2023-02-01T12:06:46.215Z,10.65
2023-02-01T12:09:09.417Z,10.45
2023-02-01T12:11:20.332Z,7.57
2023-02-01T12:13:30.841Z,5.65
2023-02-01T12:16:12.765Z,6.60
2023-02-01T12:18:23.472Z,6.13
2023-02-01T12:20:37.164Z,6.57
2023-02-01T12:22:48.042Z,6.07
2023-02-01T12:24:58.757Z,7.00
2023-02-01T12:27:23.204Z,6.25
2023-02-01T12:29:40.636Z,6.20
2023-02-01T12:31:47.276Z,7.25
2023-02-01T12:34:12.179Z,7.20
2023-02-01T12:36:34.910Z,7.00
2023-02-01T12:39:05.413Z,7.35
2023-02-01T12:41:20.355Z,8.93
2023-02-01T12:43:45.186Z,7.57
2023-02-01T12:45:56.311Z,7.15
2023-02-01T12:48:16.173Z,7.82
2023-02-01T12:50:37.555Z,8.35
2023-02-01T12:52:53.592Z,6.22
2023-02-01T12:55:21.578Z,8.77
2023-02-01T12:57:32.596Z,6.03
2023-02-01T12:59:50.889Z,6.20
2023-02-01T13:01:57.735Z,6.90
2023-02-01T13:04:25.007Z,7.18
2023-02-01T13:06:36.331Z,7.47
2023-02-01T13:08:46.309Z,8.18
2023-02-01T13:10:55.541Z,7.65
2023-02-01T13:13:13.748Z,10.70
2023-02-01T13:15:30.067Z,10.57
2023-02-01T13:17:34.688Z,8.55
2023-02-01T13:19:51.647Z,6.25
2023-02-01T13:22:04.020Z,8.48
2023-02-01T13:26:08.802Z,6.60
2023-02-01T13:28:22.519Z,6.53
2023-02-01T13:30:45.480Z,9.55
2023-02-01T13:33:54.643Z,13.02
2023-02-01T13:36:00.129Z,12.45
2023-02-01T13:38:24.859Z,15.00
2023-02-01T13:40:59.865Z,25.52
2023-02-01T13:43:08.685Z,24.23
2023-02-01T13:45:23.308Z,24.55
2023-02-01T13:47:32.648Z,27.67
2023-02-01T13:49:40.062Z,26.70
2023-02-01T13:51:45.134Z,22.13
2023-02-01T13:53:49.768Z,19.08
2023-02-01T13:55:59.424Z,13.20
2023-02-01T13:58:32.763Z,13.00
2023-02-01T14:00:37.310Z,15.77
2023-02-01T16:15:53.694Z,14.82
2023-02-01T16:19:58.291Z,12.48
2023-02-01T16:22:00.658Z,12.70
2023-02-01T16:24:04.946Z,14.23
2023-02-01T16:26:07.417Z,14.93
2023-02-01T16:28:11.166Z,15.73
2023-02-01T16:30:13.778Z,14.13
2023-02-01T16:32:19.472Z,15.15
2023-02-01T16:34:21.465Z,15.40
2023-02-01T16:38:28.578Z,15.52
2023-02-01T16:40:30.585Z,14.25
2023-02-01T16:44:34.207Z,14.43
2023-02-01T16:46:44.688Z,13.30
2023-02-01T16:48:52.098Z,13.10
2023-02-01T16:50:59.699Z,13.13
2023-02-01T16:53:02.726Z,12.85
2023-02-01T16:55:13.316Z,13.52
2023-02-01T16:57:18.738Z,13.88
2023-02-01T16:59:20.806Z,14.90
2023-02-01T17:03:24.705Z,12.90
2023-02-01T17:05:27.024Z,13.90
2023-02-01T17:07:29.225Z,13.40
2023-02-01T17:11:33.015Z,13.35
2023-02-01T17:13:35.481Z,13.20
2023-02-01T17:15:37.529Z,13.05
2023-02-01T17:17:43.230Z,12.98
2023-02-01T17:20:09.659Z,13.82
2023-02-01T17:22:11.584Z,13.75
2023-02-01T17:26:19.565Z,13.25
2023-02-01T17:28:21.737Z,13.18
2023-02-01T17:32:40.713Z,14.63
2023-02-01T17:34:43.087Z,15.38
2023-02-01T17:36:47.007Z,15.55
2023-02-01T17:39:03.818Z,16.88
2023-02-01T17:41:07.471Z,14.75
2023-02-01T17:43:27.586Z,35.70
2023-02-01T17:45:37.834Z,16.60
2023-02-01T17:47:39.907Z,15.15
2023-02-01T17:51:43.948Z,15.43
2023-02-01T17:55:48.145Z,14.52
2023-02-01T17:59:51.914Z,13.23
2023-02-01T20:15:24.956Z,17.60
2023-02-01T20:17:27.092Z,16.40
2023-02-01T20:19:30.149Z,15.88
2023-02-01T20:21:33.155Z,15.52
2023-02-01T20:23:36.340Z,16.55
2023-02-01T20:25:39.246Z,15.52
2023-02-01T20:29:43.111Z,17.38
2023-02-01T20:33:48.126Z,20.30
2023-02-01T20:35:49.975Z,21.50
2023-02-01T20:37:53.018Z,21.05
2023-02-01T20:39:55.173Z,19.25
2023-02-01T20:41:57.247Z,19.30
2023-02-01T20:46:01.610Z,17.10
2023-02-01T20:48:03.701Z,19.35
2023-02-01T20:50:06.179Z,17.92
2023-02-01T20:52:08.236Z,16.27
2023-02-01T20:54:10.172Z,17.55
2023-02-01T20:56:13.087Z,22.33
2023-02-01T20:58:14.954Z,20.05
2023-02-01T21:00:18.571Z,23.40
2023-02-01T21:02:21.600Z,16.42
2023-02-01T21:04:27.827Z,18.40
2023-02-01T21:06:29.611Z,19.90
2023-02-01T21:08:32.293Z,19.25
2023-02-01T21:10:34.846Z,22.30
2023-02-01T21:12:37.016Z,21.58
2023-02-01T21:14:38.957Z,22.40
2023-02-01T21:16:41.300Z,20.00
2023-02-01T21:18:43.763Z,20.42
2023-02-01T21:20:47.830Z,19.20
2023-02-01T21:22:49.762Z,22.60
2023-02-01T21:24:51.790Z,22.13
2023-02-01T21:26:53.915Z,21.05
2023-02-01T21:28:56.937Z,19.90
2023-02-01T21:30:58.961Z,17.55
2023-02-01T21:35:03.820Z,19.83
2023-02-01T21:37:05.969Z,30.45
2023-02-01T21:41:29.100Z,21.50
2023-02-01T21:43:31.083Z,19.35
2023-02-01T21:47:35.241Z,20.00
2023-02-01T21:49:40.105Z,29.70
2023-02-01T21:51:43.180Z,23.20
2023-02-01T21:53:45.193Z,26.42
2023-02-01T21:57:51.733Z,16.83
2023-02-01T21:59:53.677Z,16.75
2023-02-01T22:01:55.751Z,14.82
